Time;durP1;ratioP1;P1;durP2;ratioP2;P2;SDS_P1;SDS_P2;PMS_P1;PMS_P2;Temp;Humidity;BMP_temperature;BMP_pressure;BME280_temperature;BME280_humidity;BME280_pressure;Samples;Min_cycle;Max_cycle;Signal;HPM_P1;HPM_P2
2023/12/26 00:00:26;;;;;;;15.70;4.93;;;;;;;;;;5114329;28;20093;-68
2023/12/26 00:03:12;;;;;;;21.73;4.50;;;;;;;;;;5114097;28;20047;-68
2023/12/26 00:05:57;;;;;;;18.15;4.55;;;;;;;;;;5115101;28;20399;-68
2023/12/26 00:08:43;;;;;;;20.92;4.22;;;;;;;;;;5113049;28;20034;-68
2023/12/26 00:11:30;;;;;;;25.05;5.90;;;;;;;;;;5113983;28;20488;-68
2023/12/26 00:14:17;;;;;;;21.35;4.10;;;;;;;;;;5099098;28;20053;-68
2023/12/26 00:17:03;;;;;;;22.40;3.97;;;;;;;;;;5114444;28;20023;-68
2023/12/26 00:19:49;;;;;;;23.40;3.97;;;;;;;;;;5113715;28;20015;-68
2023/12/26 00:22:36;;;;;;;22.55;4.63;;;;;;;;;;5114222;28;20102;-68
2023/12/26 00:25:21;;;;;;;27.20;5.25;;;;;;;;;;5114260;28;20102;-68
2023/12/26 00:28:07;;;;;;;39.25;6.63;;;;;;;;;;5112965;28;20024;-68
2023/12/26 00:30:52;;;;;;;38.90;4.10;;;;;;;;;;5112451;28;20492;-68
2023/12/26 00:33:38;;;;;;;22.40;4.22;;;;;;;;;;5113844;28;20484;-68
2023/12/26 00:36:24;;;;;;;25.52;4.78;;;;;;;;;;5113877;28;20503;-68
2023/12/26 00:39:11;;;;;;;30.10;4.63;;;;;;;;;;5113522;28;20059;-68
2023/12/26 00:41:57;;;;;;;19.83;4.32;;;;;;;;;;5098830;28;20016;-68
2023/12/26 00:44:42;;;;;;;14.63;4.05;;;;;;;;;;5113055;28;20101;-68
2023/12/26 00:47:28;;;;;;;25.13;4.63;;;;;;;;;;5113144;28;20080;-68
2023/12/26 00:50:16;;;;;;;27.65;5.65;;;;;;;;;;5112935;28;20394;-68
2023/12/26 00:53:03;;;;;;;24.55;3.75;;;;;;;;;;5113134;28;20027;-68
2023/12/26 00:55:49;;;;;;;24.42;4.18;;;;;;;;;;5113312;28;20023;-68
2023/12/26 00:58:35;;;;;;;28.85;5.18;;;;;;;;;;5113178;28;20035;-68
2023/12/26 01:01:21;;;;;;;23.70;3.85;;;;;;;;;;5112572;28;20106;-68
2023/12/26 01:04:07;;;;;;;18.10;3.22;;;;;;;;;;5110070;28;20461;-66
2023/12/26 01:06:52;;;;;;;19.95;4.13;;;;;;;;;;5092959;28;20051;-68
2023/12/26 01:09:38;;;;;;;16.10;2.92;;;;;;;;;;5091605;28;20061;-68
2023/12/26 01:12:24;;;;;;;16.23;3.15;;;;;;;;;;5091510;28;20016;-68
2023/12/26 01:15:09;;;;;;;20.58;3.53;;;;;;;;;;5096355;28;20011;-68
2023/12/26 01:17:55;;;;;;;16.95;2.72;;;;;;;;;;5093331;28;20069;-68
2023/12/26 01:20:41;;;;;;;14.73;2.53;;;;;;;;;;5092375;28;20028;-68
2023/12/26 01:23:27;;;;;;;16.73;2.88;;;;;;;;;;5095766;28;20016;-67
2023/12/26 01:26:12;;;;;;;16.52;2.92;;;;;;;;;;5096751;28;20031;-68
2023/12/26 01:28:58;;;;;;;24.55;3.17;;;;;;;;;;5096493;28;20068;-68
2023/12/26 01:31:44;;;;;;;24.98;3.00;;;;;;;;;;5082282;28;20024;-68
2023/12/26 01:34:29;;;;;;;11.65;3.38;;;;;;;;;;5097613;28;20444;-67
2023/12/26 01:37:15;;;;;;;12.15;2.40;;;;;;;;;;5116181;28;20076;-68
2023/12/26 01:40:01;;;;;;;11.50;2.38;;;;;;;;;;5118471;28;20065;-68
2023/12/26 01:42:47;;;;;;;21.77;4.60;;;;;;;;;;5118404;28;20012;-68
2023/12/26 01:45:33;;;;;;;13.68;3.20;;;;;;;;;;5116762;28;20031;-68
2023/12/26 01:48:19;;;;;;;14.82;2.67;;;;;;;;;;5116706;28;20027;-68
2023/12/26 01:51:06;;;;;;;11.45;3.05;;;;;;;;;;5101767;28;20030;-67
2023/12/26 01:53:52;;;;;;;23.33;3.60;;;;;;;;;;5102031;28;20094;-67
2023/12/26 01:56:37;;;;;;;19.08;4.35;;;;;;;;;;5116681;28;20019;-67
2023/12/26 01:59:23;;;;;;;23.92;4.38;;;;;;;;;;5107011;28;20108;-68
2023/12/26 02:02:09;;;;;;;16.27;3.60;;;;;;;;;;5113352;28;20433;-67
2023/12/26 02:04:56;;;;;;;14.40;3.65;;;;;;;;;;5111938;22;20051;-70
2023/12/26 02:07:42;;;;;;;22.38;4.15;;;;;;;;;;5074783;28;20029;-70
2023/12/26 02:10:27;;;;;;;23.95;4.88;;;;;;;;;;5078807;28;20028;-71
2023/12/26 02:13:13;;;;;;;34.00;5.80;;;;;;;;;;5075785;28;20020;-71
2023/12/26 02:16:01;;;;;;;17.52;3.70;;;;;;;;;;5066927;28;20494;-70
2023/12/26 02:18:48;;;;;;;25.52;5.32;;;;;;;;;;5059474;28;20103;-71
2023/12/26 02:21:34;;;;;;;26.58;4.05;;;;;;;;;;5069710;28;20112;-70
2023/12/26 02:24:19;;;;;;;26.27;4.82;;;;;;;;;;5074764;28;20020;-71
2023/12/26 02:27:05;;;;;;;33.63;6.75;;;;;;;;;;5083565;28;20397;-70
2023/12/26 02:29:52;;;;;;;26.85;4.60;;;;;;;;;;5074864;28;20100;-70
2023/12/26 02:32:39;;;;;;;25.50;4.03;;;;;;;;;;5068817;28;20085;-71
2023/12/26 02:35:25;;;;;;;24.95;4.78;;;;;;;;;;5083516;28;20059;-71
2023/12/26 02:38:10;;;;;;;15.55;3.70;;;;;;;;;;5073994;28;20398;-71
2023/12/26 02:40:56;;;;;;;23.08;4.68;;;;;;;;;;5074175;28;20040;-70
2023/12/26 02:43:42;;;;;;;28.30;4.43;;;;;;;;;;5075882;28;20383;-71
2023/12/26 02:46:27;;;;;;;29.83;4.13;;;;;;;;;;5074148;28;20024;-70
2023/12/26 02:49:13;;;;;;;19.90;6.35;;;;;;;;;;5076818;28;20456;-70
2023/12/26 02:51:59;;;;;;;29.15;4.05;;;;;;;;;;5078677;28;20028;-71
2023/12/26 02:54:44;;;;;;;24.42;4.13;;;;;;;;;;5085924;28;20016;-70
2023/12/26 02:57:30;;;;;;;36.20;4.47;;;;;;;;;;5076521;28;20402;-70
2023/12/26 03:00:16;;;;;;;24.80;5.40;;;;;;;;;;5073793;28;20082;-71
2023/12/26 03:03:02;;;;;;;18.50;3.95;;;;;;;;;;5094328;28;20024;-71
2023/12/26 03:05:47;;;;;;;30.60;5.25;;;;;;;;;;5078656;28;20032;-70
2023/12/26 03:08:33;;;;;;;23.45;3.95;;;;;;;;;;5093430;28;20031;-71
2023/12/26 03:11:19;;;;;;;26.13;4.72;;;;;;;;;;5085348;28;20509;-71
2023/12/26 03:14:04;;;;;;;27.38;4.53;;;;;;;;;;5072800;28;20056;-71
2023/12/26 03:16:50;;;;;;;30.23;4.60;;;;;;;;;;5081460;28;20511;-71
2023/12/26 03:19:36;;;;;;;23.65;5.13;;;;;;;;;;5073335;28;20105;-71
2023/12/26 03:22:21;;;;;;;26.13;4.88;;;;;;;;;;5077474;28;20104;-71
2023/12/26 03:25:07;;;;;;;25.27;4.13;;;;;;;;;;5073467;28;20035;-71
2023/12/26 03:27:53;;;;;;;21.65;3.78;;;;;;;;;;5062573;28;20035;-71
2023/12/26 03:30:39;;;;;;;26.23;4.60;;;;;;;;;;5093133;28;20039;-71
2023/12/26 03:33:24;;;;;;;21.77;4.15;;;;;;;;;;5092599;28;20073;-71
2023/12/26 03:36:10;;;;;;;30.77;4.05;;;;;;;;;;5093566;28;20024;-71
2023/12/26 03:38:56;;;;;;;24.30;5.88;;;;;;;;;;5093813;28;20116;-71
2023/12/26 03:41:44;;;;;;;25.10;4.30;;;;;;;;;;5093846;28;20016;-70
2023/12/26 03:44:29;;;;;;;18.17;4.07;;;;;;;;;;5091757;28;20020;-71
2023/12/26 03:47:15;;;;;;;28.50;5.20;;;;;;;;;;5074699;28;20504;-71
2023/12/26 03:50:02;;;;;;;24.17;5.00;;;;;;;;;;5072164;28;20036;-71
2023/12/26 03:52:47;;;;;;;23.20;3.92;;;;;;;;;;5064001;28;20032;-70
2023/12/26 03:55:34;;;;;;;20.63;3.95;;;;;;;;;;5072286;28;20032;-70
2023/12/26 03:58:19;;;;;;;21.10;4.30;;;;;;;;;;5079769;28;20017;-70
2023/12/26 04:01:05;;;;;;;22.35;4.13;;;;;;;;;;5084627;28;20028;-70
2023/12/26 04:03:50;;;;;;;20.45;3.70;;;;;;;;;;5091962;28;20093;-71
2023/12/26 04:06:36;;;;;;;23.17;4.28;;;;;;;;;;5077211;28;20028;-71
2023/12/26 04:09:23;;;;;;;21.02;4.78;;;;;;;;;;5079090;28;20493;-71
2023/12/26 04:12:09;;;;;;;27.88;4.97;;;;;;;;;;5092248;28;20404;-71
2023/12/26 04:14:55;;;;;;;25.33;5.82;;;;;;;;;;5080361;28;20571;-70
2023/12/26 04:17:41;;;;;;;19.90;3.90;;;;;;;;;;5058755;28;20024;-71
2023/12/26 04:20:27;;;;;;;20.63;4.53;;;;;;;;;;5075060;28;20028;-70
2023/12/26 04:23:12;;;;;;;31.35;4.82;;;;;;;;;;5092009;28;20024;-71
2023/12/26 04:25:58;;;;;;;39.95;4.93;;;;;;;;;;5090947;28;20020;-71
2023/12/26 04:28:44;;;;;;;31.58;5.25;;;;;;;;;;5088922;28;20020;-71
2023/12/26 04:31:30;;;;;;;22.58;3.58;;;;;;;;;;5091538;28;20028;-70
2023/12/26 04:34:16;;;;;;;22.55;4.07;;;;;;;;;;5091598;28;20031;-71
2023/12/26 04:37:02;;;;;;;21.27;4.20;;;;;;;;;;5072025;28;20489;-70
2023/12/26 04:39:47;;;;;;;25.27;4.40;;;;;;;;;;5071762;28;20119;-70
2023/12/26 04:42:33;;;;;;;20.08;5.68;;;;;;;;;;5081385;28;20107;-70
2023/12/26 04:45:19;;;;;;;37.85;4.90;;;;;;;;;;5088138;28;20107;-70
2023/12/26 04:48:07;;;;;;;28.33;3.90;;;;;;;;;;5071408;28;20040;-71
2023/12/26 04:50:53;;;;;;;27.60;3.97;;;;;;;;;;5046731;28;20028;-70
2023/12/26 04:53:38;;;;;;;18.08;3.15;;;;;;;;;;5073145;28;20021;-70
2023/12/26 04:56:25;;;;;;;17.60;4.15;;;;;;;;;;5071394;28;20020;-70
2023/12/26 04:59:10;;;;;;;30.80;4.13;;;;;;;;;;5072052;28;20031;-71
2023/12/26 05:01:56;;;;;;;30.83;5.00;;;;;;;;;;5071048;28;20021;-70
2023/12/26 05:04:41;;;;;;;21.30;4.40;;;;;;;;;;5088293;28;20037;-70
2023/12/26 05:07:27;;;;;;;15.63;4.82;;;;;;;;;;5089974;28;20024;-70
2023/12/26 05:10:13;;;;;;;26.13;5.28;;;;;;;;;;5091619;28;20027;-71
2023/12/26 05:12:59;;;;;;;18.60;3.83;;;;;;;;;;5092638;28;20099;-70
2023/12/26 05:15:44;;;;;;;23.08;4.53;;;;;;;;;;5092098;28;20023;-70
2023/12/26 05:18:31;;;;;;;21.00;4.60;;;;;;;;;;5072601;28;20052;-70
2023/12/26 05:21:21;;;;;;;36.15;4.38;;;;;;;;;;5056664;28;20129;-71
2023/12/26 05:24:06;;;;;;;16.15;3.95;;;;;;;;;;5070950;28;20031;-70
2023/12/26 05:26:52;;;;;;;15.55;4.13;;;;;;;;;;5070671;28;20081;-70
2023/12/26 05:29:42;;;;;;;20.30;2.90;;;;;;;;;;5081430;28;20016;-70
2023/12/26 05:32:27;;;;;;;38.70;5.30;;;;;;;;;;5077807;28;20012;-71
2023/12/26 05:35:13;;;;;;;18.33;4.15;;;;;;;;;;5089574;28;20095;-71
2023/12/26 05:38:00;;;;;;;38.38;4.30;;;;;;;;;;5071278;28;20046;-71
2023/12/26 05:40:46;;;;;;;36.92;6.57;;;;;;;;;;5074415;28;20028;-71
2023/12/26 05:43:31;;;;;;;17.35;4.20;;;;;;;;;;5087122;28;20024;-71
2023/12/26 05:46:20;;;;;;;31.27;4.75;;;;;;;;;;5077592;28;20512;-71
2023/12/26 05:49:06;;;;;;;32.80;5.88;;;;;;;;;;5071232;28;20086;-71
2023/12/26 05:51:51;;;;;;;23.20;3.58;;;;;;;;;;5075678;28;20070;-70
2023/12/26 05:54:37;;;;;;;27.98;4.18;;;;;;;;;;5070465;28;20039;-71
2023/12/26 05:57:23;;;;;;;34.15;5.00;;;;;;;;;;5072541;28;20028;-70
2023/12/26 06:00:09;;;;;;;28.08;4.78;;;;;;;;;;5071107;28;20028;-71
2023/12/26 06:02:55;;;;;;;25.25;3.97;;;;;;;;;;5073395;28;20090;-71
2023/12/26 06:05:40;;;;;;;19.55;4.95;;;;;;;;;;5077677;28;20028;-70
2023/12/26 06:08:26;;;;;;;24.25;4.43;;;;;;;;;;5082595;28;20020;-70
2023/12/26 06:11:12;;;;;;;23.33;3.92;;;;;;;;;;5080424;28;20504;-70
2023/12/26 06:13:58;;;;;;;23.88;4.60;;;;;;;;;;5083928;28;20024;-70
2023/12/26 06:16:43;;;;;;;33.50;4.60;;;;;;;;;;5088332;28;20031;-70
2023/12/26 06:19:29;;;;;;;32.17;5.28;;;;;;;;;;5094152;28;20378;-71
2023/12/26 06:22:15;;;;;;;12.50;3.70;;;;;;;;;;5088015;28;20032;-70
2023/12/26 06:25:00;;;;;;;24.05;4.25;;;;;;;;;;5074753;28;20024;-70
2023/12/26 06:27:47;;;;;;;11.93;2.80;;;;;;;;;;5076571;28;20485;-70
2023/12/26 06:30:32;;;;;;;26.30;4.75;;;;;;;;;;5074612;28;20056;-70
2023/12/26 06:33:19;;;;;;;28.02;5.40;;;;;;;;;;5090168;28;20103;-71
2023/12/26 06:36:05;;;;;;;24.08;4.10;;;;;;;;;;5092494;28;20272;-71
2023/12/26 06:38:52;;;;;;;32.85;4.65;;;;;;;;;;5090871;28;21278;-70
2023/12/26 06:41:39;;;;;;;16.45;3.63;;;;;;;;;;5074223;28;20107;-70
2023/12/26 06:44:25;;;;;;;29.88;4.47;;;;;;;;;;5074486;28;20028;-70
2023/12/26 06:47:14;;;;;;;31.95;4.55;;;;;;;;;;5091089;28;20024;-71
2023/12/26 06:49:59;;;;;;;23.45;4.78;;;;;;;;;;5093294;28;20052;-71
2023/12/26 06:52:45;;;;;;;31.20;4.90;;;;;;;;;;5077923;28;20117;-70
2023/12/26 06:55:31;;;;;;;19.85;3.30;;;;;;;;;;5074068;28;20106;-70
2023/12/26 06:58:16;;;;;;;24.45;4.03;;;;;;;;;;5078346;28;20028;-70
2023/12/26 07:01:02;;;;;;;20.23;3.97;;;;;;;;;;5073325;28;20485;-71
2023/12/26 07:03:48;;;;;;;19.00;3.60;;;;;;;;;;5076999;28;20027;-70
2023/12/26 07:06:35;;;;;;;21.77;3.40;;;;;;;;;;5077908;28;20032;-71
2023/12/26 07:09:20;;;;;;;20.02;3.70;;;;;;;;;;5075360;28;20032;-70
2023/12/26 07:12:06;;;;;;;31.67;4.63;;;;;;;;;;5073818;28;20027;-71
2023/12/26 07:14:52;;;;;;;31.23;4.70;;;;;;;;;;5073911;28;20021;-70
2023/12/26 07:17:38;;;;;;;13.20;4.90;;;;;;;;;;5074908;28;20417;-71
2023/12/26 07:20:23;;;;;;;21.63;4.38;;;;;;;;;;5076579;28;20557;-71
2023/12/26 07:23:09;;;;;;;21.85;3.28;;;;;;;;;;5074783;28;20025;-71
2023/12/26 07:25:55;;;;;;;17.33;4.20;;;;;;;;;;5075933;28;20036;-70
2023/12/26 07:28:40;;;;;;;13.10;4.05;;;;;;;;;;5090170;28;20028;-70
2023/12/26 07:31:26;;;;;;;20.05;3.55;;;;;;;;;;5091291;28;20032;-71
2023/12/26 07:34:12;;;;;;;17.67;4.70;;;;;;;;;;5091373;28;20039;-70
2023/12/26 07:36:57;;;;;;;26.88;5.05;;;;;;;;;;5092540;28;20077;-71
2023/12/26 07:39:43;;;;;;;14.98;3.90;;;;;;;;;;5077153;28;20032;-70
2023/12/26 07:42:29;;;;;;;22.17;4.28;;;;;;;;;;5073540;28;20139;-70
2023/12/26 07:45:14;;;;;;;19.98;3.97;;;;;;;;;;5073641;28;20020;-70
2023/12/26 07:48:00;;;;;;;22.15;4.63;;;;;;;;;;5083866;28;20118;-70
2023/12/26 07:50:46;;;;;;;21.05;5.05;;;;;;;;;;5079061;28;20024;-70
2023/12/26 07:53:32;;;;;;;20.65;3.55;;;;;;;;;;5074768;28;20028;-70
2023/12/26 07:56:18;;;;;;;33.50;4.50;;;;;;;;;;5073165;28;20048;-71
2023/12/26 07:59:04;;;;;;;19.38;4.22;;;;;;;;;;5073398;28;20029;-70
2023/12/26 08:01:50;;;;;;;19.88;3.45;;;;;;;;;;5072237;28;20062;-70
2023/12/26 08:04:35;;;;;;;21.65;3.50;;;;;;;;;;5075330;28;20042;-70
2023/12/26 08:07:21;;;;;;;22.67;3.55;;;;;;;;;;5128889;22;20044;-68
2023/12/26 08:10:07;;;;;;;24.17;4.00;;;;;;;;;;5090432;28;20024;-68
2023/12/26 08:12:53;;;;;;;11.10;2.70;;;;;;;;;;5092962;28;20031;-68
2023/12/26 08:15:38;;;;;;;22.40;3.35;;;;;;;;;;5073306;28;20471;-68
2023/12/26 08:18:24;;;;;;;19.85;3.75;;;;;;;;;;5051962;28;20035;-68
2023/12/26 08:21:10;;;;;;;21.52;4.03;;;;;;;;;;5040079;28;20029;-67
2023/12/26 08:23:55;;;;;;;15.38;2.80;;;;;;;;;;5051624;28;20504;-68
2023/12/26 08:26:41;;;;;;;16.20;2.72;;;;;;;;;;5058614;28;20060;-68
2023/12/26 08:29:29;;;;;;;23.27;3.85;;;;;;;;;;5037935;28;20065;-67
2023/12/26 08:32:16;;;;;;;5.55;2.22;;;;;;;;;;5053817;28;20055;-68
2023/12/26 08:35:02;;;;;;;14.18;3.35;;;;;;;;;;5071849;28;20023;-67
2023/12/26 08:37:48;;;;;;;16.13;2.80;;;;;;;;;;5069038;28;20024;-67
2023/12/26 08:40:33;;;;;;;18.45;3.25;;;;;;;;;;5038301;28;20025;-68
2023/12/26 08:43:19;;;;;;;21.27;3.67;;;;;;;;;;5052909;28;20112;-68
2023/12/26 08:46:05;;;;;;;14.63;3.20;;;;;;;;;;5054467;28;20031;-68
2023/12/26 08:48:51;;;;;;;14.50;3.95;;;;;;;;;;5038265;28;20032;-68
2023/12/26 08:51:39;;;;;;;11.88;3.40;;;;;;;;;;5064061;28;20503;-68
2023/12/26 08:54:24;;;;;;;13.00;2.75;;;;;;;;;;5066506;28;20111;-67
2023/12/26 08:57:10;;;;;;;22.42;4.10;;;;;;;;;;5058146;28;20112;-67
2023/12/26 08:59:56;;;;;;;25.27;4.18;;;;;;;;;;5062273;28;20450;-67
2023/12/26 09:02:44;;;;;;;18.42;3.75;;;;;;;;;;5059164;28;20401;-66
2023/12/26 09:05:29;;;;;;;13.88;3.05;;;;;;;;;;5047136;28;20025;-67
2023/12/26 09:08:15;;;;;;;25.20;5.07;;;;;;;;;;5070181;28;20020;-67
2023/12/26 09:11:01;;;;;;;29.13;4.80;;;;;;;;;;5071425;28;20108;-67
2023/12/26 09:13:46;;;;;;;23.63;3.63;;;;;;;;;;5069096;28;22310;-67
2023/12/26 09:16:32;;;;;;;18.63;3.50;;;;;;;;;;5061580;28;20075;-67
2023/12/26 09:19:18;;;;;;;19.67;5.25;;;;;;;;;;5062570;28;20051;-67
2023/12/26 09:22:03;;;;;;;16.73;3.40;;;;;;;;;;5073084;28;20499;-67
2023/12/26 09:24:49;;;;;;;20.00;3.85;;;;;;;;;;5061330;28;20028;-67
2023/12/26 09:27:35;;;;;;;30.27;5.53;;;;;;;;;;5071237;28;20025;-67
2023/12/26 09:30:21;;;;;;;28.80;4.80;;;;;;;;;;5057793;28;20075;-68
2023/12/26 09:33:06;;;;;;;21.33;3.92;;;;;;;;;;5072025;28;20103;-67
2023/12/26 09:35:52;;;;;;;12.77;3.53;;;;;;;;;;5081226;28;20016;-68
2023/12/26 09:38:38;;;;;;;30.65;5.13;;;;;;;;;;5072207;28;20568;-68
2023/12/26 09:41:25;;;;;;;22.33;3.72;;;;;;;;;;5071733;28;20032;-67
2023/12/26 09:44:11;;;;;;;15.57;4.05;;;;;;;;;;5048127;28;20032;-68
2023/12/26 09:46:58;;;;;;;23.00;4.25;;;;;;;;;;5064514;28;20099;-68
2023/12/26 09:49:45;;;;;;;27.52;5.10;;;;;;;;;;5061537;28;20020;-68
2023/12/26 09:52:35;;;;;;;19.65;3.72;;;;;;;;;;5075235;28;20099;-68
2023/12/26 09:55:21;;;;;;;25.42;4.15;;;;;;;;;;5066310;28;20025;-68
2023/12/26 09:58:06;;;;;;;21.25;4.40;;;;;;;;;;5078044;28;20031;-68
2023/12/26 10:00:53;;;;;;;23.92;4.45;;;;;;;;;;5061922;28;20056;-68
2023/12/26 10:03:39;;;;;;;41.05;6.82;;;;;;;;;;5057929;28;20398;-68
2023/12/26 10:06:25;;;;;;;16.45;2.85;;;;;;;;;;5072855;28;20112;-68
2023/12/26 10:09:11;;;;;;;9.48;2.50;;;;;;;;;;5061224;28;20020;-68
2023/12/26 10:11:57;;;;;;;11.38;2.30;;;;;;;;;;5074359;28;20017;-67
2023/12/26 10:14:43;;;;;;;12.75;2.50;;;;;;;;;;5075676;28;20060;-68
2023/12/26 10:17:28;;;;;;;16.45;2.45;;;;;;;;;;5070841;28;20099;-68
2023/12/26 10:20:15;;;;;;;12.48;3.80;;;;;;;;;;5075763;28;20022;-68
2023/12/26 10:23:04;;;;;;;11.85;2.85;;;;;;;;;;5049588;28;20078;-68
2023/12/26 10:25:50;;;;;;;10.00;2.35;;;;;;;;;;5074374;28;20012;-68
2023/12/26 10:28:40;;;;;;;6.78;1.88;;;;;;;;;;5041879;28;20040;-68
2023/12/26 10:31:26;;;;;;;12.77;2.70;;;;;;;;;;5060101;28;20021;-68
2023/12/26 10:34:19;;;;;;;11.32;1.55;;;;;;;;;;5059386;28;20021;-67
2023/12/26 10:37:05;;;;;;;15.65;2.55;;;;;;;;;;5060524;28;20020;-68
2023/12/26 10:39:51;;;;;;;7.18;1.95;;;;;;;;;;5074281;28;20029;-68
2023/12/26 10:42:40;;;;;;;7.68;1.42;;;;;;;;;;5073718;28;20143;-68
2023/12/26 10:45:26;;;;;;;17.10;3.15;;;;;;;;;;5042673;28;20020;-68
2023/12/26 10:48:12;;;;;;;6.07;1.95;;;;;;;;;;5060346;28;20024;-68
2023/12/26 10:51:02;;;;;;;8.30;2.20;;;;;;;;;;5053999;28;20115;-68
2023/12/26 10:54:15;;;;;;;2.65;1.35;;;;;;;;;;5058272;28;20025;-68
2023/12/26 10:57:00;;;;;;;3.35;1.38;;;;;;;;;;5069712;28;20511;-68
2023/12/26 13:51:51;;;;;;;5.13;1.52;;;;;;;;;;5052708;28;20025;-69
2023/12/26 13:55:14;;;;;;;3.28;1.45;;;;;;;;;;5052791;28;20621;-69
2023/12/26 13:58:37;;;;;;;6.53;1.73;;;;;;;;;;5055806;28;20025;-68
2023/12/26 14:02:00;;;;;;;14.80;2.85;;;;;;;;;;5054827;28;20028;-67
2023/12/26 14:05:23;;;;;;;11.88;1.85;;;;;;;;;;5053643;28;20034;-68
2023/12/26 14:08:47;;;;;;;2.90;1.45;;;;;;;;;;5077817;22;20051;-69
2023/12/26 14:12:10;;;;;;;3.75;1.80;;;;;;;;;;5082657;28;20024;-70
2023/12/26 14:15:33;;;;;;;4.53;2.38;;;;;;;;;;5080409;28;20032;-73
2023/12/26 14:18:57;;;;;;;5.57;2.17;;;;;;;;;;5083354;28;20076;-69
2023/12/26 14:22:23;;;;;;;6.65;1.58;;;;;;;;;;5073333;28;20021;-70
2023/12/26 14:25:46;;;;;;;5.93;1.48;;;;;;;;;;5089018;28;20060;-70
2023/12/26 14:29:09;;;;;;;6.53;1.80;;;;;;;;;;5076105;28;20028;-70
2023/12/26 14:32:32;;;;;;;11.70;2.70;;;;;;;;;;5087379;28;20373;-70
2023/12/26 14:35:56;;;;;;;15.63;2.42;;;;;;;;;;5077382;28;20025;-71
2023/12/26 14:39:19;;;;;;;10.63;3.53;;;;;;;;;;5086945;28;20477;-70
2023/12/26 14:42:42;;;;;;;6.60;2.22;;;;;;;;;;5088322;28;20489;-70
2023/12/26 14:46:05;;;;;;;4.53;1.58;;;;;;;;;;5077119;28;20016;-71
2023/12/26 14:49:28;;;;;;;11.27;3.47;;;;;;;;;;5074366;28;20021;-70
2023/12/26 14:52:51;;;;;;;6.80;1.70;;;;;;;;;;5085921;28;20519;-71
2023/12/26 14:56:14;;;;;;;9.40;2.00;;;;;;;;;;5094463;28;20024;-70
2023/12/26 14:59:37;;;;;;;4.05;2.15;;;;;;;;;;5091962;28;20042;-70
2023/12/26 15:02:24;;;;;;;2.58;1.55;;;;;;;;;;5088503;28;20090;-70
2023/12/26 15:05:10;;;;;;;11.82;1.65;;;;;;;;;;5086175;28;20028;-70
2023/12/26 15:07:56;;;;;;;11.18;2.33;;;;;;;;;;5059437;28;20028;-69
2023/12/26 15:10:41;;;;;;;3.28;1.67;;;;;;;;;;5092754;28;20439;-70
2023/12/26 15:13:27;;;;;;;7.43;2.08;;;;;;;;;;5092726;28;20016;-70
2023/12/26 15:16:15;;;;;;;3.45;1.20;;;;;;;;;;5090266;28;20023;-70
2023/12/26 15:19:01;;;;;;;5.15;1.90;;;;;;;;;;5079537;28;20059;-70
2023/12/26 15:21:46;;;;;;;2.25;1.73;;;;;;;;;;5087576;28;20051;-71
2023/12/26 15:24:32;;;;;;;3.28;2.47;;;;;;;;;;5084830;28;20544;-70
2023/12/26 15:27:20;;;;;;;5.60;2.55;;;;;;;;;;5094502;28;20111;-70
2023/12/26 15:30:06;;;;;;;4.25;2.20;;;;;;;;;;5083752;28;20025;-70
2023/12/26 15:32:52;;;;;;;6.13;1.52;;;;;;;;;;5083064;28;20055;-70
2023/12/26 15:35:37;;;;;;;9.52;2.45;;;;;;;;;;5093423;28;20508;-69
2023/12/26 15:38:23;;;;;;;4.80;1.95;;;;;;;;;;5086178;28;20047;-70
2023/12/26 15:41:08;;;;;;;2.78;1.50;;;;;;;;;;5092055;28;20497;-70
2023/12/26 15:43:54;;;;;;;11.13;2.70;;;;;;;;;;5080472;28;20028;-69
2023/12/26 15:46:40;;;;;;;5.07;2.33;;;;;;;;;;5089072;28;20024;-70
2023/12/26 15:49:26;;;;;;;10.23;3.58;;;;;;;;;;5091440;28;20485;-70
2023/12/26 15:52:11;;;;;;;5.97;2.05;;;;;;;;;;5094134;28;20020;-69
2023/12/26 15:54:58;;;;;;;12.70;2.90;;;;;;;;;;5084309;28;20105;-70
2023/12/26 15:57:44;;;;;;;6.32;1.85;;;;;;;;;;5085613;28;20016;-69
2023/12/26 16:00:31;;;;;;;6.15;1.90;;;;;;;;;;5085329;28;20099;-69
2023/12/26 16:03:17;;;;;;;8.23;1.92;;;;;;;;;;5088351;28;20043;-70
2023/12/26 16:06:03;;;;;;;4.80;2.20;;;;;;;;;;5090921;28;20024;-70
2023/12/26 16:08:49;;;;;;;12.65;3.10;;;;;;;;;;5067824;28;20052;-70
2023/12/26 16:11:35;;;;;;;8.65;2.10;;;;;;;;;;5079254;28;20027;-69
2023/12/26 16:14:23;;;;;;;31.20;8.27;;;;;;;;;;5084441;28;20027;-72
2023/12/26 16:17:09;;;;;;;13.00;4.03;;;;;;;;;;5074694;28;20031;-71
2023/12/26 16:19:55;;;;;;;6.53;1.85;;;;;;;;;;5063261;28;20020;-70
2023/12/26 16:22:41;;;;;;;7.50;2.80;;;;;;;;;;5081471;28;20467;-70
2023/12/26 16:25:26;;;;;;;10.20;2.80;;;;;;;;;;5087163;28;20024;-70
2023/12/26 16:28:12;;;;;;;4.18;2.00;;;;;;;;;;5084245;28;20552;-70
2023/12/26 16:31:00;;;;;;;9.80;2.45;;;;;;;;;;5076619;28;20047;-69
2023/12/26 16:33:46;;;;;;;5.68;2.30;;;;;;;;;;5067062;28;20469;-70
2023/12/26 16:36:32;;;;;;;13.88;2.17;;;;;;;;;;5080511;28;20089;-70
2023/12/26 16:39:17;;;;;;;10.98;1.77;;;;;;;;;;5078338;28;20024;-70
2023/12/26 16:42:10;;;;;;;7.32;2.25;;;;;;;;;;5083490;28;20028;-71
2023/12/26 16:44:56;;;;;;;7.53;2.13;;;;;;;;;;5077582;28;20556;-71
2023/12/26 16:47:42;;;;;;;28.92;3.70;;;;;;;;;;5082512;28;20051;-70
2023/12/26 16:50:27;;;;;;;6.57;1.95;;;;;;;;;;5086665;28;20512;-69
2023/12/26 16:53:13;;;;;;;9.02;2.72;;;;;;;;;;5080391;28;20025;-69
2023/12/26 16:55:59;;;;;;;22.20;4.00;;;;;;;;;;5079005;28;20055;-70
2023/12/26 16:58:45;;;;;;;15.75;3.13;;;;;;;;;;5077915;28;20028;-71
2023/12/26 17:01:30;;;;;;;11.50;2.70;;;;;;;;;;5074297;28;20057;-70
2023/12/26 17:04:16;;;;;;;10.45;3.05;;;;;;;;;;5081508;28;20071;-70
2023/12/26 17:07:02;;;;;;;13.48;2.17;;;;;;;;;;5083216;28;20097;-69
2023/12/26 17:09:47;;;;;;;12.50;2.40;;;;;;;;;;5080882;28;20024;-70
2023/12/26 17:12:33;;;;;;;11.57;2.75;;;;;;;;;;5081338;28;20028;-70
2023/12/26 17:15:19;;;;;;;12.40;2.30;;;;;;;;;;5076837;28;20020;-70
2023/12/26 17:18:05;;;;;;;14.00;3.05;;;;;;;;;;5077389;28;20440;-69
2023/12/26 17:20:50;;;;;;;9.88;2.88;;;;;;;;;;5080274;28;20485;-71
2023/12/26 17:23:37;;;;;;;16.08;2.88;;;;;;;;;;5085293;28;20024;-70
2023/12/26 17:26:23;;;;;;;17.55;3.50;;;;;;;;;;5080640;28;20020;-68
2023/12/26 17:29:09;;;;;;;8.25;3.92;;;;;;;;;;5086332;28;20378;-70
2023/12/26 17:31:57;;;;;;;22.80;5.15;;;;;;;;;;5070791;28;20024;-70
2023/12/26 17:34:43;;;;;;;17.98;3.33;;;;;;;;;;5082575;28;20024;-69
2023/12/26 17:37:29;;;;;;;13.80;3.83;;;;;;;;;;5084286;28;20114;-71
2023/12/26 17:40:14;;;;;;;6.50;3.40;;;;;;;;;;5078157;28;20031;-70
2023/12/26 17:43:00;;;;;;;14.27;2.72;;;;;;;;;;5088435;28;20482;-69
2023/12/26 17:45:45;;;;;;;10.45;3.17;;;;;;;;;;5092045;28;20076;-70
2023/12/26 17:48:32;;;;;;;17.17;3.63;;;;;;;;;;5086022;28;20537;-71
2023/12/26 17:51:18;;;;;;;11.75;2.58;;;;;;;;;;5088244;28;20028;-71
2023/12/26 17:54:04;;;;;;;8.60;2.50;;;;;;;;;;5087099;28;20375;-71
2023/12/26 17:56:49;;;;;;;7.32;2.08;;;;;;;;;;5066683;28;20093;-71
2023/12/26 17:59:35;;;;;;;12.55;3.80;;;;;;;;;;5083552;28;20031;-71
2023/12/26 18:02:21;;;;;;;10.35;2.50;;;;;;;;;;5080433;28;20024;-69
2023/12/26 18:05:07;;;;;;;6.68;2.78;;;;;;;;;;5090351;28;20508;-70
2023/12/26 18:07:52;;;;;;;5.63;2.05;;;;;;;;;;5090258;28;20099;-69
2023/12/26 18:10:38;;;;;;;9.20;1.73;;;;;;;;;;5092921;28;20020;-71
2023/12/26 18:13:24;;;;;;;8.52;2.13;;;;;;;;;;5091210;28;20028;-69
2023/12/26 18:16:10;;;;;;;12.23;3.28;;;;;;;;;;5074895;28;20036;-71
2023/12/26 18:18:55;;;;;;;21.45;2.50;;;;;;;;;;5069497;28;20107;-70
2023/12/26 18:21:44;;;;;;;7.43;2.35;;;;;;;;;;5076507;28;21522;-68
2023/12/26 18:24:30;;;;;;;5.70;2.00;;;;;;;;;;5086135;28;20044;-68
2023/12/26 18:27:15;;;;;;;10.52;2.00;;;;;;;;;;5092915;28;20082;-69
2023/12/26 18:30:01;;;;;;;5.18;2.08;;;;;;;;;;5070081;28;20032;-66
2023/12/26 18:32:47;;;;;;;17.20;3.00;;;;;;;;;;5077101;28;20028;-67
2023/12/26 18:35:33;;;;;;;6.35;2.25;;;;;;;;;;5086889;28;20031;-69
2023/12/26 18:38:18;;;;;;;12.75;2.78;;;;;;;;;;5093026;28;20020;-68
2023/12/26 18:41:04;;;;;;;10.98;2.67;;;;;;;;;;5053235;28;20103;-69
2023/12/26 18:43:50;;;;;;;14.73;2.50;;;;;;;;;;5074935;28;20032;-68
2023/12/26 18:46:36;;;;;;;14.45;3.00;;;;;;;;;;5081257;28;20449;-68
2023/12/26 18:49:22;;;;;;;10.18;3.20;;;;;;;;;;5089094;28;20032;-68
2023/12/26 18:52:08;;;;;;;15.18;2.97;;;;;;;;;;5058608;28;20027;-69
2023/12/26 18:54:56;;;;;;;16.63;2.88;;;;;;;;;;5091634;28;20024;-70
2023/12/26 18:57:43;;;;;;;6.78;2.85;;;;;;;;;;5074765;28;20023;-69
2023/12/26 19:00:29;;;;;;;14.68;4.00;;;;;;;;;;5091040;28;20024;-66
2023/12/26 19:03:14;;;;;;;11.43;3.08;;;;;;;;;;5072605;28;20031;-68
2023/12/26 19:06:00;;;;;;;11.20;3.15;;;;;;;;;;5077960;28;20093;-68
2023/12/26 19:08:46;;;;;;;21.95;2.90;;;;;;;;;;5090384;28;20082;-68
2023/12/26 19:11:31;;;;;;;17.25;2.60;;;;;;;;;;5089765;28;20066;-68
2023/12/26 19:14:17;;;;;;;8.95;2.58;;;;;;;;;;5072569;28;20028;-69
2023/12/26 19:17:03;;;;;;;12.65;3.15;;;;;;;;;;5086850;28;20040;-67
2023/12/26 19:19:49;;;;;;;10.23;2.53;;;;;;;;;;5082548;28;20055;-70
2023/12/26 19:22:35;;;;;;;22.90;2.92;;;;;;;;;;5089053;28;20070;-70
2023/12/26 19:25:20;;;;;;;5.60;2.67;;;;;;;;;;5069663;28;20400;-70
2023/12/26 19:28:06;;;;;;;22.05;3.03;;;;;;;;;;5090693;28;20067;-70